createdAt,value
2023-05-20T00:00:39.834Z,11.30
2023-05-20T00:03:06.619Z,11.20
2023-05-20T00:05:33.305Z,11.20
2023-05-20T00:08:00.554Z,11.20
2023-05-20T00:10:27.686Z,11.10
2023-05-20T00:12:54.320Z,11.10
2023-05-20T00:15:20.998Z,11.10
2023-05-20T00:17:47.676Z,11.10
2023-05-20T00:20:14.496Z,11.10
2023-05-20T00:22:41.211Z,11.20
2023-05-20T00:25:08.361Z,11.30
2023-05-20T00:27:35.015Z,11.50
2023-05-20T00:30:02.313Z,11.40
2023-05-20T00:32:29.174Z,11.20
2023-05-20T00:34:59.523Z,11.10
2023-05-20T00:37:27.188Z,11.00
2023-05-20T00:39:54.464Z,10.80
2023-05-20T00:42:24.995Z,10.80
2023-05-20T00:44:52.016Z,10.60
2023-05-20T00:47:21.528Z,10.60
2023-05-20T00:49:50.961Z,10.50
2023-05-20T00:52:19.492Z,10.40
2023-05-20T00:54:46.353Z,10.40
2023-05-20T00:57:13.784Z,10.30
2023-05-20T00:59:42.325Z,10.30
2023-05-20T01:02:11.335Z,10.40
2023-05-20T01:04:38.981Z,10.30
2023-05-20T01:07:07.228Z,10.10
2023-05-20T01:09:34.067Z,10.20
2023-05-20T01:12:12.037Z,10.00
2023-05-20T01:14:48.340Z,10.00
2023-05-20T01:17:17.891Z,10.00
2023-05-20T01:19:49.016Z,10.00
2023-05-20T01:22:16.222Z,9.90
2023-05-20T01:24:44.726Z,9.90
2023-05-20T01:27:13.525Z,9.70
2023-05-20T01:29:42.711Z,9.60
2023-05-20T01:32:25.236Z,9.50
2023-05-20T01:34:53.293Z,9.40
2023-05-20T01:37:23.037Z,9.40
2023-05-20T01:39:51.091Z,9.30
2023-05-20T01:42:20.978Z,9.20
2023-05-20T01:44:48.417Z,9.30
2023-05-20T01:47:15.214Z,9.30
2023-05-20T01:49:41.958Z,9.40
2023-05-20T01:52:08.863Z,9.50
2023-05-20T01:54:36.260Z,9.40
2023-05-20T01:57:03.002Z,9.40
2023-05-20T01:59:29.926Z,9.50
2023-05-20T02:01:56.786Z,9.50
2023-05-20T02:04:23.501Z,9.50
2023-05-20T02:06:50.231Z,9.50
2023-05-20T02:09:18.568Z,9.50
2023-05-20T02:11:45.407Z,9.50
2023-05-20T02:14:12.249Z,9.40
2023-05-20T02:16:38.953Z,9.40
2023-05-20T02:19:05.708Z,9.30
2023-05-20T02:21:32.375Z,9.20
2023-05-20T02:23:59.116Z,9.10
2023-05-20T02:26:26.510Z,9.10
2023-05-20T02:28:53.215Z,9.10
2023-05-20T02:31:22.426Z,9.00
2023-05-20T02:33:49.122Z,8.90
2023-05-20T02:36:17.201Z,8.90
2023-05-20T02:38:44.602Z,8.90
2023-05-20T02:41:11.291Z,8.90
2023-05-20T02:43:38.074Z,8.90
2023-05-20T02:46:04.910Z,8.80
2023-05-20T02:48:33.074Z,8.70
2023-05-20T02:51:00.142Z,8.60
2023-05-20T02:53:27.089Z,8.60
2023-05-20T02:55:54.418Z,8.50
2023-05-20T02:58:26.210Z,8.50
2023-05-20T03:00:53.253Z,8.40
2023-05-20T03:03:20.487Z,8.40
2023-05-20T03:05:47.180Z,8.40
2023-05-20T03:08:14.950Z,8.40
2023-05-20T03:10:41.658Z,8.30
2023-05-20T03:13:09.917Z,8.20
2023-05-20T03:15:38.574Z,8.10
2023-05-20T03:18:05.934Z,8.00
2023-05-20T03:20:32.744Z,7.90
2023-05-20T03:22:59.656Z,7.90
2023-05-20T03:25:26.383Z,7.90
2023-05-20T03:27:53.084Z,8.00
2023-05-20T03:30:20.608Z,8.00
2023-05-20T03:32:47.759Z,8.00
2023-05-20T03:35:14.612Z,7.90
2023-05-20T03:37:41.456Z,7.90
2023-05-20T03:40:12.272Z,7.80
2023-05-20T03:42:40.644Z,7.70
2023-05-20T03:45:07.879Z,7.70
2023-05-20T03:47:41.612Z,7.70
2023-05-20T03:50:08.685Z,7.70
2023-05-20T03:52:36.018Z,7.70
2023-05-20T03:55:03.903Z,7.70
2023-05-20T03:57:32.114Z,7.70
2023-05-20T03:59:58.764Z,7.60
2023-05-20T04:02:26.102Z,7.60
2023-05-20T04:04:52.956Z,7.50
2023-05-20T04:07:19.800Z,7.40
2023-05-20T04:09:46.781Z,7.30
2023-05-20T04:12:13.945Z,7.30
2023-05-20T04:14:42.137Z,7.30
2023-05-20T04:17:09.552Z,7.30
2023-05-20T04:19:38.236Z,7.30
2023-05-20T04:22:05.267Z,7.30
2023-05-20T04:24:32.002Z,7.40
2023-05-20T04:26:58.782Z,7.50
2023-05-20T04:29:28.431Z,7.60
2023-05-20T04:31:58.650Z,7.60
2023-05-20T04:34:26.774Z,7.60
2023-05-20T04:36:53.746Z,7.60
2023-05-20T04:39:20.582Z,7.70
2023-05-20T04:41:51.915Z,7.80
2023-05-20T04:44:18.572Z,7.90
2023-05-20T04:46:46.035Z,7.90
2023-05-20T04:49:15.273Z,8.00
2023-05-20T04:51:41.929Z,8.00
2023-05-20T04:54:08.595Z,8.00
2023-05-20T04:56:36.205Z,8.10
2023-05-20T04:59:03.412Z,8.20
2023-05-20T05:01:30.196Z,8.30
2023-05-20T05:03:57.444Z,8.40
2023-05-20T05:06:24.386Z,8.50
2023-05-20T05:08:51.129Z,8.60
2023-05-20T05:11:17.857Z,8.70
2023-05-20T05:13:46.043Z,8.90
2023-05-20T05:16:13.905Z,9.00
2023-05-20T05:18:40.714Z,9.00
2023-05-20T05:21:07.497Z,9.20
2023-05-20T05:23:35.725Z,9.30
2023-05-20T05:26:02.542Z,9.40
2023-05-20T05:28:29.398Z,9.50
2023-05-20T05:30:56.596Z,9.70
2023-05-20T05:33:23.395Z,9.70
2023-05-20T05:35:50.632Z,9.80
2023-05-20T05:38:17.416Z,9.90
2023-05-20T05:40:44.134Z,9.90
2023-05-20T05:43:11.539Z,9.90
2023-05-20T05:45:39.117Z,10.00
2023-05-20T05:48:05.907Z,10.10
2023-05-20T05:50:32.779Z,10.20
2023-05-20T05:52:59.566Z,10.30
2023-05-20T05:55:26.538Z,10.30
2023-05-20T05:57:54.957Z,10.40
2023-05-20T06:00:22.526Z,10.40
2023-05-20T06:02:49.591Z,10.40
2023-05-20T06:05:31.591Z,10.40
2023-05-20T06:07:58.360Z,10.50
2023-05-20T06:10:25.845Z,10.60
2023-05-20T06:12:52.689Z,10.60
2023-05-20T06:15:19.900Z,10.70
2023-05-20T06:17:46.990Z,10.80
2023-05-20T06:20:15.247Z,10.90
2023-05-20T06:22:41.938Z,10.90
2023-05-20T06:25:09.443Z,11.10
2023-05-20T06:27:37.032Z,11.00
2023-05-20T06:30:05.948Z,11.10
2023-05-20T06:32:32.673Z,11.20
2023-05-20T06:34:59.447Z,11.30
2023-05-20T06:37:26.149Z,11.40
2023-05-20T06:39:53.933Z,11.50
2023-05-20T06:42:21.545Z,11.60
2023-05-20T06:45:02.407Z,11.60
2023-05-20T06:47:36.493Z,11.70
2023-05-20T06:50:03.818Z,11.80
2023-05-20T06:52:31.171Z,11.80
2023-05-20T06:54:57.847Z,11.80
2023-05-20T06:57:24.611Z,11.80
2023-05-20T06:59:51.695Z,11.90
2023-05-20T07:02:21.229Z,12.00
2023-05-20T07:04:48.599Z,12.00
2023-05-20T07:07:17.361Z,12.20
2023-05-20T07:09:45.466Z,12.30
2023-05-20T07:12:12.240Z,12.50
2023-05-20T07:14:38.901Z,12.60
2023-05-20T07:17:05.964Z,12.80
2023-05-20T07:19:33.774Z,13.00
2023-05-20T07:22:00.856Z,13.10
2023-05-20T07:24:52.351Z,13.20
2023-05-20T07:27:19.013Z,13.40
2023-05-20T07:29:46.050Z,13.50
2023-05-20T07:32:13.198Z,13.60
2023-05-20T07:34:39.920Z,13.80
2023-05-20T07:37:06.623Z,13.80
2023-05-20T07:39:33.267Z,13.90
2023-05-20T07:42:00.002Z,13.90
2023-05-20T07:44:27.173Z,14.10
2023-05-20T07:46:55.542Z,14.40
2023-05-20T07:49:22.549Z,14.50
2023-05-20T07:51:49.300Z,14.50
2023-05-20T07:54:16.462Z,14.70
2023-05-20T07:56:46.385Z,14.60
2023-05-20T07:59:13.712Z,14.50
2023-05-20T08:01:44.315Z,14.70
2023-05-20T08:04:12.572Z,14.90
2023-05-20T08:06:39.808Z,14.90
2023-05-20T08:09:10.069Z,15.00
2023-05-20T08:11:47.161Z,15.10
2023-05-20T08:14:14.576Z,15.10
2023-05-20T08:16:43.879Z,15.30
2023-05-20T08:19:11.043Z,15.30
2023-05-20T08:21:38.323Z,15.50
2023-05-20T08:24:05.904Z,15.30
2023-05-20T08:26:32.995Z,15.30
2023-05-20T08:28:59.871Z,15.50
2023-05-20T08:31:26.775Z,15.50
2023-05-20T08:33:53.501Z,15.50
2023-05-20T08:36:20.206Z,15.60
2023-05-20T08:38:47.628Z,15.80
2023-05-20T08:41:14.379Z,16.00
2023-05-20T08:43:44.530Z,16.00
2023-05-20T08:46:12.437Z,16.10
2023-05-20T08:48:39.779Z,16.30
2023-05-20T08:51:09.518Z,16.40
2023-05-20T08:53:36.198Z,16.30
2023-05-20T08:56:03.839Z,16.30
2023-05-20T08:58:31.503Z,16.40
2023-05-20T09:01:01.968Z,16.60
2023-05-20T09:03:28.771Z,16.90
2023-05-20T09:06:07.247Z,16.90
2023-05-20T09:08:34.435Z,17.00
2023-05-20T09:11:01.368Z,16.90
2023-05-20T09:13:30.216Z,17.10
2023-05-20T09:15:56.920Z,16.80
2023-05-20T09:18:24.635Z,17.00
2023-05-20T09:20:52.920Z,17.60
2023-05-20T09:23:22.196Z,17.90
2023-05-20T09:25:52.250Z,17.90
2023-05-20T09:28:26.611Z,17.40
2023-05-20T09:31:00.681Z,17.40
2023-05-20T09:33:31.814Z,17.20
2023-05-20T09:36:09.639Z,17.20
2023-05-20T09:38:40.282Z,17.00
2023-05-20T09:41:12.172Z,17.50
2023-05-20T09:43:40.281Z,17.60
2023-05-20T09:46:08.201Z,17.40
2023-05-20T09:48:38.503Z,17.60
2023-05-20T09:51:07.226Z,18.30
2023-05-20T09:53:34.079Z,17.90
2023-05-20T09:56:01.142Z,18.00
2023-05-20T09:58:29.674Z,17.80
2023-05-20T10:00:56.527Z,17.50
2023-05-20T10:03:24.992Z,17.40
2023-05-20T10:06:32.630Z,17.30
2023-05-20T10:09:19.775Z,16.90
2023-05-20T10:12:10.612Z,17.00
2023-05-20T10:15:07.224Z,17.10
2023-05-20T10:17:56.100Z,17.20
2023-05-20T10:20:22.961Z,17.10
2023-05-20T10:22:57.660Z,17.20
2023-05-20T10:25:27.110Z,17.60
2023-05-20T10:28:05.603Z,18.50
2023-05-20T10:30:32.455Z,19.30
2023-05-20T10:33:05.572Z,20.10
2023-05-20T10:35:32.874Z,20.10
2023-05-20T10:38:12.985Z,19.50
2023-05-20T10:40:40.700Z,19.00
2023-05-20T10:43:16.777Z,19.00
2023-05-20T10:45:52.065Z,18.60
2023-05-20T10:48:29.060Z,18.40
2023-05-20T10:50:59.765Z,18.00
2023-05-20T10:53:33.960Z,18.40
2023-05-20T10:56:01.362Z,18.50
2023-05-20T10:58:28.174Z,18.60
2023-05-20T11:00:56.140Z,19.20
2023-05-20T11:03:24.026Z,19.30
2023-05-20T11:05:51.588Z,19.00
2023-05-20T11:08:28.566Z,19.20
2023-05-20T11:10:57.248Z,19.20
2023-05-20T11:13:24.971Z,18.50
2023-05-20T11:15:51.914Z,18.70
2023-05-20T11:18:19.032Z,18.20
2023-05-20T11:20:47.161Z,17.70
2023-05-20T11:23:15.515Z,17.50
2023-05-20T11:25:42.545Z,18.20
2023-05-20T11:28:16.376Z,18.40
2023-05-20T11:30:43.678Z,18.40
2023-05-20T11:33:13.369Z,18.40
2023-05-20T11:35:49.509Z,19.50
2023-05-20T11:38:16.753Z,20.00
2023-05-20T11:41:02.448Z,20.10
2023-05-20T11:43:30.014Z,19.50
2023-05-20T11:46:00.914Z,19.10
2023-05-20T11:48:27.647Z,19.20
2023-05-20T11:50:55.612Z,19.40
2023-05-20T11:53:24.189Z,20.50
2023-05-20T11:55:59.540Z,20.60
2023-05-20T11:58:30.788Z,20.20
2023-05-20T12:01:05.708Z,19.60
2023-05-20T12:03:44.858Z,18.50
2023-05-20T12:06:14.736Z,18.30
2023-05-20T12:08:41.395Z,19.40
2023-05-20T12:11:08.369Z,20.80
2023-05-20T12:13:35.589Z,20.30
2023-05-20T12:16:02.620Z,19.70
2023-05-20T12:18:29.381Z,19.30
2023-05-20T12:20:56.102Z,19.10
2023-05-20T12:23:22.803Z,19.40
2023-05-20T12:25:49.997Z,19.60
2023-05-20T12:28:17.659Z,19.50
2023-05-20T12:30:44.359Z,19.30
2023-05-20T12:33:11.068Z,19.20
2023-05-20T12:35:40.234Z,19.60
2023-05-20T12:38:07.391Z,19.90
2023-05-20T12:40:34.987Z,19.70
2023-05-20T12:43:03.686Z,19.60
2023-05-20T12:45:30.390Z,19.60
2023-05-20T12:47:57.765Z,19.70
2023-05-20T12:50:25.764Z,20.10
2023-05-20T12:52:52.549Z,20.10
2023-05-20T12:55:19.346Z,19.90
2023-05-20T12:57:46.927Z,19.90
2023-05-20T13:00:14.258Z,19.60
2023-05-20T13:02:42.136Z,19.80
2023-05-20T13:05:09.957Z,19.70
2023-05-20T13:07:36.816Z,19.80
2023-05-20T13:10:03.722Z,20.10
2023-05-20T13:12:30.359Z,20.40
2023-05-20T13:14:57.113Z,21.20
2023-05-20T13:17:23.869Z,21.90
2023-05-20T13:19:51.230Z,22.20
2023-05-20T13:22:18.101Z,21.40
2023-05-20T13:24:44.773Z,20.50
2023-05-20T13:27:11.479Z,20.50
2023-05-20T13:29:38.245Z,20.10
2023-05-20T13:32:05.134Z,19.70
2023-05-20T13:34:31.951Z,20.10
2023-05-20T13:36:59.677Z,20.60
2023-05-20T13:39:27.079Z,20.40
2023-05-20T13:41:54.967Z,20.10
2023-05-20T13:44:21.774Z,20.00
2023-05-20T13:46:48.480Z,20.20
2023-05-20T13:49:15.283Z,20.60
2023-05-20T13:51:41.970Z,20.70
2023-05-20T13:54:08.594Z,20.80
2023-05-20T13:56:35.432Z,21.20
2023-05-20T13:59:02.223Z,21.30
2023-05-20T14:01:32.847Z,21.00
2023-05-20T14:03:59.707Z,21.10
2023-05-20T14:06:29.257Z,21.90
2023-05-20T14:08:57.071Z,22.40
2023-05-20T14:11:23.960Z,22.10
2023-05-20T14:13:50.631Z,22.10
2023-05-20T14:16:17.468Z,21.20
2023-05-20T14:18:44.218Z,20.50
2023-05-20T14:21:11.984Z,19.70
2023-05-20T14:23:40.994Z,19.30
2023-05-20T14:26:07.731Z,19.40
2023-05-20T14:28:34.531Z,18.90
2023-05-20T14:31:01.303Z,19.00
2023-05-20T14:33:28.032Z,19.00
2023-05-20T14:35:54.803Z,18.60
2023-05-20T14:38:21.755Z,18.50
2023-05-20T14:40:48.407Z,18.80
2023-05-20T14:43:15.332Z,19.80
2023-05-20T14:45:42.111Z,20.60
2023-05-20T14:48:08.900Z,21.60
2023-05-20T14:50:35.796Z,21.60
2023-05-20T14:53:02.741Z,20.90
2023-05-20T14:55:29.593Z,20.40
2023-05-20T14:57:56.285Z,20.50
2023-05-20T15:00:23.182Z,20.30
2023-05-20T15:02:49.976Z,20.20
2023-05-20T15:05:17.966Z,20.40
2023-05-20T15:07:44.894Z,19.50
2023-05-20T15:10:12.876Z,19.50
2023-05-20T15:12:39.603Z,19.10
2023-05-20T15:15:06.835Z,18.80
2023-05-20T15:17:33.594Z,18.50
2023-05-20T15:20:00.473Z,18.50
2023-05-20T15:22:27.299Z,18.10
2023-05-20T15:24:53.927Z,17.50
2023-05-20T15:27:20.904Z,17.20
2023-05-20T15:29:48.626Z,17.10
2023-05-20T15:32:15.568Z,17.20
2023-05-20T15:34:42.301Z,17.20
2023-05-20T15:37:08.947Z,17.50
2023-05-20T15:39:38.305Z,17.40
2023-05-20T15:42:06.278Z,17.30
2023-05-20T15:44:33.519Z,17.40
2023-05-20T15:47:00.189Z,17.40
2023-05-20T15:49:26.930Z,17.40
2023-05-20T15:52:03.105Z,17.20
2023-05-20T15:54:30.834Z,16.90
2023-05-20T15:56:58.056Z,17.00
2023-05-20T15:59:24.869Z,16.90
2023-05-20T16:01:51.653Z,16.90
2023-05-20T16:04:19.592Z,16.90
2023-05-20T16:06:46.928Z,16.60
2023-05-20T16:09:13.585Z,16.60
2023-05-20T16:11:40.289Z,16.70
2023-05-20T16:14:06.954Z,16.60
2023-05-20T16:16:35.850Z,16.50
2023-05-20T16:19:03.060Z,16.40
2023-05-20T16:21:29.776Z,16.50
2023-05-20T16:23:56.431Z,16.40
2023-05-20T16:26:23.120Z,16.40
2023-05-20T16:28:49.823Z,16.40
2023-05-20T16:31:16.588Z,16.40
2023-05-20T16:33:43.301Z,16.40
2023-05-20T16:36:09.946Z,16.60
2023-05-20T16:38:36.887Z,16.60
2023-05-20T16:41:03.588Z,16.80
2023-05-20T16:43:30.294Z,16.90
2023-05-20T16:45:57.041Z,16.90
2023-05-20T16:48:24.000Z,16.80
2023-05-20T16:50:50.744Z,16.80
2023-05-20T16:53:17.419Z,16.80
2023-05-20T16:55:44.098Z,16.90
2023-05-20T16:58:11.140Z,16.80
2023-05-20T17:00:37.883Z,16.80
2023-05-20T17:03:04.582Z,16.80
2023-05-20T17:05:31.445Z,16.80
2023-05-20T17:08:00.347Z,16.80
2023-05-20T17:10:28.789Z,16.70
2023-05-20T17:12:55.703Z,16.60
2023-05-20T17:15:23.278Z,16.50
2023-05-20T17:17:50.540Z,16.40
2023-05-20T17:20:17.481Z,16.40
2023-05-20T17:22:44.185Z,16.40
2023-05-20T17:25:11.200Z,16.30
2023-05-20T17:27:37.972Z,16.20
2023-05-20T17:30:05.487Z,16.30
2023-05-20T17:32:32.234Z,16.30
2023-05-20T17:34:58.900Z,16.40
2023-05-20T17:37:25.971Z,16.20
2023-05-20T17:39:52.658Z,16.20
2023-05-20T17:42:19.316Z,16.20
2023-05-20T17:44:45.993Z,16.20
2023-05-20T17:47:12.673Z,16.20
2023-05-20T17:49:39.349Z,16.10
2023-05-20T17:52:06.355Z,16.20
2023-05-20T17:54:33.045Z,16.10
2023-05-20T17:56:59.850Z,16.00
2023-05-20T17:59:26.566Z,16.00
2023-05-20T18:01:53.275Z,16.00
2023-05-20T18:04:21.279Z,15.90
2023-05-20T18:06:47.978Z,15.80
2023-05-20T18:09:14.706Z,15.80
2023-05-20T18:11:41.472Z,15.80
2023-05-20T18:14:08.108Z,15.70
2023-05-20T18:16:35.295Z,15.70
2023-05-20T18:19:02.975Z,15.60
2023-05-20T18:21:29.898Z,15.60
2023-05-20T18:23:56.571Z,15.70
2023-05-20T18:26:23.419Z,15.60
2023-05-20T18:28:50.202Z,15.60
2023-05-20T18:31:17.055Z,15.70
2023-05-20T18:33:43.826Z,15.70
2023-05-20T18:36:10.565Z,15.60
2023-05-20T18:38:39.122Z,15.60
2023-05-20T18:41:07.933Z,15.60
2023-05-20T18:43:34.763Z,15.60
2023-05-20T18:46:01.537Z,15.60
2023-05-20T18:48:28.434Z,15.60
2023-05-20T18:50:56.100Z,15.60
2023-05-20T18:53:23.462Z,15.60
2023-05-20T18:55:50.648Z,15.50
2023-05-20T18:58:17.343Z,15.50
2023-05-20T19:00:44.141Z,15.50
2023-05-20T19:03:11.508Z,15.50
2023-05-20T19:05:38.681Z,15.50
2023-05-20T19:08:06.075Z,15.40
2023-05-20T19:10:32.887Z,15.40
2023-05-20T19:12:59.794Z,15.30
2023-05-20T19:15:26.624Z,15.30
2023-05-20T19:17:53.458Z,15.20
2023-05-20T19:20:20.470Z,15.10
2023-05-20T19:22:47.474Z,15.00
2023-05-20T19:25:14.289Z,14.90
2023-05-20T19:27:41.231Z,14.70
2023-05-20T19:30:10.754Z,14.60
2023-05-20T19:32:38.764Z,14.40
2023-05-20T19:35:06.260Z,14.20
2023-05-20T19:37:33.133Z,14.00
2023-05-20T19:39:59.895Z,13.90
2023-05-20T19:42:26.607Z,13.90
2023-05-20T19:44:53.999Z,13.70
2023-05-20T19:47:21.200Z,13.70
2023-05-20T19:49:48.262Z,13.60
2023-05-20T19:52:15.011Z,13.50
2023-05-20T19:54:42.713Z,13.50
2023-05-20T19:57:09.914Z,13.40
2023-05-20T19:59:37.821Z,13.40
2023-05-20T20:02:05.836Z,13.30
2023-05-20T20:04:32.678Z,13.20
2023-05-20T20:06:59.905Z,13.20
2023-05-20T20:09:26.607Z,13.10
2023-05-20T20:11:53.404Z,13.00
2023-05-20T20:14:20.461Z,13.00
2023-05-20T20:16:48.960Z,13.00
2023-05-20T20:19:18.785Z,13.00
2023-05-20T20:21:46.325Z,12.90
2023-05-20T20:24:13.022Z,12.80
2023-05-20T20:26:39.710Z,12.80
2023-05-20T20:29:07.500Z,12.80
2023-05-20T20:31:34.430Z,12.80
2023-05-20T20:34:01.396Z,12.70
2023-05-20T20:36:31.907Z,12.60
2023-05-20T20:38:59.405Z,12.60
2023-05-20T20:41:26.294Z,12.60
2023-05-20T20:43:53.121Z,12.70
2023-05-20T20:46:20.039Z,12.60
2023-05-20T20:48:46.884Z,12.70
2023-05-20T20:51:17.249Z,12.80
2023-05-20T20:53:46.343Z,12.80
2023-05-20T20:56:13.149Z,12.80
2023-05-20T20:58:39.973Z,12.70
2023-05-20T21:01:07.155Z,12.70
2023-05-20T21:03:40.492Z,12.60
2023-05-20T21:06:07.814Z,12.60
2023-05-20T21:08:34.727Z,12.50
2023-05-20T21:11:01.395Z,12.40
2023-05-20T21:13:29.922Z,12.40
2023-05-20T21:15:56.750Z,12.30
2023-05-20T21:18:24.003Z,12.20
2023-05-20T21:20:52.409Z,12.20
2023-05-20T21:23:22.546Z,12.20
2023-05-20T21:25:49.352Z,12.20
2023-05-20T21:28:16.280Z,12.30
2023-05-20T21:30:43.028Z,12.40
2023-05-20T21:33:09.853Z,12.40
2023-05-20T21:35:36.914Z,12.50
2023-05-20T21:38:03.805Z,12.60
2023-05-20T21:40:30.495Z,12.70
2023-05-20T21:42:57.160Z,12.80
2023-05-20T21:45:23.847Z,12.80
2023-05-20T21:47:50.561Z,12.90
2023-05-20T21:50:17.340Z,12.90
2023-05-20T21:52:44.091Z,12.90
2023-05-20T21:55:10.838Z,12.90
2023-05-20T21:57:37.806Z,12.90
2023-05-20T22:00:10.091Z,12.90
2023-05-20T22:02:37.724Z,12.80
2023-05-20T22:05:04.970Z,12.70
2023-05-20T22:07:32.953Z,12.70
2023-05-20T22:10:00.577Z,12.60
2023-05-20T22:12:27.680Z,12.50
2023-05-20T22:14:54.446Z,12.40
2023-05-20T22:17:21.596Z,12.40
2023-05-20T22:19:48.348Z,12.30
2023-05-20T22:22:15.094Z,12.20
2023-05-20T22:24:41.782Z,12.20
2023-05-20T22:27:08.438Z,12.20
2023-05-20T22:29:35.186Z,12.20
2023-05-20T22:32:02.224Z,12.20
2023-05-20T22:34:29.069Z,12.10
2023-05-20T22:36:55.708Z,12.10
2023-05-20T22:39:22.364Z,12.10
2023-05-20T22:41:49.198Z,12.10
2023-05-20T22:44:15.874Z,12.20
2023-05-20T22:46:42.547Z,12.30
2023-05-20T22:49:10.311Z,12.30
2023-05-20T22:51:38.481Z,12.40
2023-05-20T22:54:06.826Z,12.40
2023-05-20T22:56:34.015Z,12.50
2023-05-20T22:59:00.881Z,12.50
2023-05-20T23:01:27.877Z,12.60
2023-05-20T23:03:54.952Z,12.70
2023-05-20T23:06:22.371Z,12.70
2023-05-20T23:08:49.100Z,12.80
2023-05-20T23:11:15.807Z,12.90
2023-05-20T23:13:42.445Z,12.90
2023-05-20T23:16:09.323Z,13.00
2023-05-20T23:18:36.106Z,12.90
2023-05-20T23:21:02.838Z,12.90
2023-05-20T23:23:31.722Z,12.90
2023-05-20T23:25:59.228Z,12.90
2023-05-20T23:28:26.215Z,12.90
2023-05-20T23:30:52.984Z,12.90
2023-05-20T23:33:24.784Z,12.90
2023-05-20T23:35:52.115Z,12.90
2023-05-20T23:38:18.995Z,12.80
2023-05-20T23:40:45.700Z,12.80
2023-05-20T23:43:12.371Z,12.80
2023-05-20T23:45:39.047Z,12.70
2023-05-20T23:48:06.974Z,12.70
2023-05-20T23:50:33.750Z,12.60
2023-05-20T23:53:00.435Z,12.60
2023-05-20T23:55:28.408Z,12.60
2023-05-20T23:57:55.345Z,12.60
